Time;durP1;ratioP1;P1;durP2;ratioP2;P2;SDS_P1;SDS_P2;PMS_P1;PMS_P2;Temp;Humidity;BMP_temperature;BMP_pressure;BME280_temperature;BME280_humidity;BME280_pressure;Samples;Min_cycle;Max_cycle;Signal;HPM_P1;HPM_P2
2021/12/24 00:00:38;;;;;;;17.83;13.10;;;9.50;99.90;;;;;;5016614;28;20022;-79
2021/12/24 00:03:04;;;;;;;22.00;14.65;;;9.50;99.90;;;;;;5034839;28;20029;-79
2021/12/24 00:05:31;;;;;;;21.95;14.63;;;9.50;99.90;;;;;;5023652;28;20030;-79
2021/12/24 00:07:58;;;;;;;28.65;20.70;;;9.50;99.90;;;;;;5016792;28;20038;-79
2021/12/24 00:10:24;;;;;;;20.45;14.02;;;9.40;99.90;;;;;;5018135;28;20038;-78
2021/12/24 00:12:59;;;;;;;18.83;13.63;;;9.40;99.90;;;;;;5016738;28;20094;-78
2021/12/24 00:18:08;;;;;;;13.25;10.63;;;9.40;99.90;;;;;;5033392;28;20493;-78
2021/12/24 00:35:05;;;;;;;14.45;11.15;;;9.40;99.90;;;;;;5015919;28;20069;-78
2021/12/24 00:37:01;;;;;;;15.00;10.85;;;9.40;99.90;;;;;;5017264;28;20076;-78
2021/12/24 00:39:26;;;;;;;13.63;9.63;;;9.40;99.90;;;;;;5016673;28;20041;-79
2021/12/24 00:41:52;;;;;;;13.55;10.23;;;9.40;99.90;;;;;;5017409;28;20071;-79
2021/12/24 00:44:18;;;;;;;12.90;10.25;;;9.30;99.90;;;;;;5020763;28;20076;-78
2021/12/24 00:46:44;;;;;;;12.10;9.30;;;9.40;99.90;;;;;;5020382;28;20052;-78
2021/12/24 00:49:09;;;;;;;11.90;9.77;;;9.40;99.90;;;;;;5015956;28;20034;-79
2021/12/24 00:57:03;;;;;;;12.93;9.32;;;9.30;99.90;;;;;;5016796;28;20033;-78
2021/12/24 00:59:29;;;;;;;10.57;8.05;;;9.40;99.90;;;;;;5016465;28;20474;-79
2021/12/24 01:01:55;;;;;;;14.93;10.02;;;9.40;99.90;;;;;;5019811;28;20021;-80
2021/12/24 01:04:20;;;;;;;12.50;9.25;;;9.40;99.90;;;;;;5036280;28;20033;-79
2021/12/24 01:06:46;;;;;;;11.63;9.38;;;9.40;99.90;;;;;;5032358;28;20045;-78
2021/12/24 01:09:12;;;;;;;14.40;9.32;;;9.40;99.90;;;;;;5028882;28;20473;-79
2021/12/24 01:11:38;;;;;;;13.10;9.60;;;9.30;99.90;;;;;;5036595;28;20563;-79
2021/12/24 01:14:04;;;;;;;15.00;10.10;;;9.30;99.90;;;;;;5035518;28;20442;-78
2021/12/24 01:16:41;;;;;;;15.27;8.82;;;9.40;99.90;;;;;;5021251;28;20076;-78
2021/12/24 01:19:16;;;;;;;12.77;9.65;;;9.40;99.90;;;;;;5018307;28;20041;-78
2021/12/24 01:24:41;;;;;;;16.08;9.57;;;9.40;99.90;;;;;;5016627;28;20044;-77
2021/12/24 01:43:04;;;;;;;14.32;11.48;;;9.40;99.90;;;;;;5016721;28;20037;-78
2021/12/24 01:45:33;;;;;;;17.52;11.18;;;9.40;99.90;;;;;;5018972;28;20060;-77
2021/12/24 01:48:01;;;;;;;16.92;11.32;;;9.40;99.90;;;;;;5019133;28;20057;-77
2021/12/24 01:50:30;;;;;;;14.45;10.57;;;9.40;99.90;;;;;;5018957;28;20098;-78
2021/12/24 01:52:56;;;;;;;14.52;10.38;;;9.40;99.90;;;;;;5020382;28;20486;-78
2021/12/24 01:55:23;;;;;;;15.77;11.25;;;9.50;99.90;;;;;;5019723;28;20026;-77
2021/12/24 01:57:49;;;;;;;16.67;11.63;;;9.50;99.90;;;;;;5020225;28;20022;-77
2021/12/24 02:00:22;;;;;;;14.77;10.75;;;9.50;99.90;;;;;;5032184;28;20404;-77
2021/12/24 02:02:47;;;;;;;14.48;11.02;;;9.50;99.90;;;;;;5027381;28;20033;-77
2021/12/24 02:05:13;;;;;;;19.05;12.20;;;9.40;99.90;;;;;;5020083;28;20080;-77
2021/12/24 02:07:39;;;;;;;12.82;10.43;;;9.40;99.90;;;;;;5029481;28;20509;-76
2021/12/24 02:10:09;;;;;;;17.15;11.40;;;9.40;99.90;;;;;;5031920;28;20417;-77
2021/12/24 02:12:36;;;;;;;14.73;10.70;;;9.40;99.90;;;;;;5036533;28;20017;-78
2021/12/24 02:15:07;;;;;;;16.95;11.88;;;9.40;99.90;;;;;;5022228;28;20026;-77
2021/12/24 02:30:44;;;;;;;19.30;12.20;;;9.40;99.90;;;;;;5019455;28;20050;-77
2021/12/24 02:33:10;;;;;;;18.40;11.75;;;9.40;99.90;;;;;;5021227;28;20037;-78
2021/12/24 02:35:36;;;;;;;16.17;11.32;;;9.40;99.90;;;;;;5020085;28;20053;-78
2021/12/24 02:38:04;;;;;;;16.73;12.65;;;9.40;99.90;;;;;;5019295;28;20025;-78
2021/12/24 02:40:31;;;;;;;19.38;13.05;;;9.40;99.90;;;;;;5019829;28;20391;-78
2021/12/24 02:42:59;;;;;;;19.13;12.95;;;9.40;99.90;;;;;;5019542;28;20418;-79
2021/12/24 02:45:29;;;;;;;21.55;14.32;;;9.40;99.90;;;;;;5029347;28;20037;-78
2021/12/24 02:55:32;;;;;;;21.42;14.48;;;9.40;99.90;;;;;;5033515;28;20121;-78
2021/12/24 02:57:58;;;;;;;19.15;14.00;;;9.40;99.90;;;;;;5037953;28;20049;-78
2021/12/24 03:00:26;;;;;;;25.70;15.75;;;9.50;99.90;;;;;;5038004;28;20029;-78
2021/12/24 03:02:53;;;;;;;18.40;12.88;;;9.50;99.90;;;;;;5032396;28;20089;-78
2021/12/24 03:05:21;;;;;;;22.25;14.95;;;9.50;99.90;;;;;;5019033;28;20034;-78
2021/12/24 03:07:48;;;;;;;18.25;13.43;;;9.50;99.90;;;;;;5018758;28;20073;-78
2021/12/24 03:10:17;;;;;;;16.83;11.75;;;9.50;99.90;;;;;;5020853;28;20042;-79
2021/12/24 03:12:45;;;;;;;20.15;14.43;;;9.50;99.90;;;;;;5019675;28;20022;-78
2021/12/24 03:15:13;;;;;;;19.73;13.10;;;9.50;99.90;;;;;;5018439;28;20462;-79
2021/12/24 03:17:45;;;;;;;22.52;13.95;;;9.50;99.90;;;;;;5017844;28;20026;-78
2021/12/24 03:20:11;;;;;;;20.98;13.65;;;9.60;99.90;;;;;;5021121;28;20120;-79
2021/12/24 03:25:38;;;;;;;;;;;9.60;99.90;;;;;;5026653;28;20155;-79
2021/12/24 03:28:04;;;;;;;20.83;15.52;;;9.60;99.90;;;;;;5021754;28;19952;-78
2021/12/24 03:30:30;;;;;;;24.38;17.27;;;9.50;99.90;;;;;;5019116;28;20030;-78
2021/12/24 03:32:55;;;;;;;24.98;15.85;;;9.50;99.90;;;;;;5018487;28;20044;-78
2021/12/24 03:35:21;;;;;;;24.75;16.25;;;9.50;99.90;;;;;;5016988;28;20057;-78
2021/12/24 03:37:47;;;;;;;26.48;16.08;;;9.50;99.90;;;;;;5018403;28;20478;-78
2021/12/24 03:40:13;;;;;;;26.83;17.30;;;9.50;99.90;;;;;;5018480;28;20021;-78
2021/12/24 03:42:41;;;;;;;24.55;15.43;;;9.50;99.90;;;;;;5033594;28;20161;-78
2021/12/24 03:45:28;;;;;;;24.30;16.63;;;9.50;99.90;;;;;;5024866;28;20033;-78
2021/12/24 03:47:59;;;;;;;25.55;16.98;;;9.50;99.90;;;;;;5022652;28;20035;-78
2021/12/24 03:50:38;;;;;;;;;;;9.60;99.90;;;;;;5032936;28;20076;-78
2021/12/24 03:54:55;;;;;;;23.60;15.32;;;9.60;99.90;;;;;;5038147;28;19909;-78
2021/12/24 03:55:50;;;;;;;23.38;14.95;;;9.60;99.90;;;;;;5034869;28;20473;-79
2021/12/24 03:58:16;;;;;;;20.90;14.75;;;9.60;99.90;;;;;;5038123;28;20049;-79
2021/12/24 04:00:42;;;;;;;25.80;15.60;;;9.50;99.90;;;;;;5025159;28;20029;-79
2021/12/24 04:03:07;;;;;;;27.73;16.30;;;9.50;99.90;;;;;;5027128;28;20040;-79
2021/12/24 04:05:33;;;;;;;23.63;15.40;;;9.50;99.90;;;;;;5020018;28;20034;-79
2021/12/24 04:07:59;;;;;;;24.63;15.68;;;9.50;99.90;;;;;;5015853;28;20042;-78
2021/12/24 04:10:39;;;;;;;25.00;17.17;;;9.50;99.90;;;;;;5018081;28;20029;-78
2021/12/24 04:13:05;;;;;;;27.45;16.88;;;9.50;99.90;;;;;;5017592;28;20065;-78
2021/12/24 04:15:30;;;;;;;24.90;16.30;;;9.50;99.90;;;;;;5016549;28;20030;-78
2021/12/24 04:17:56;;;;;;;22.58;15.27;;;9.50;99.90;;;;;;5017642;28;20022;-78
2021/12/24 04:25:50;;;;;;;26.10;16.23;;;9.50;99.90;;;;;;5027670;28;20044;-78
2021/12/24 04:28:16;;;;;;;24.33;16.42;;;9.40;99.90;;;;;;5033179;28;20105;-78
2021/12/24 04:30:48;;;;;;;25.75;16.35;;;9.40;99.90;;;;;;5016027;28;20508;-79
2021/12/24 04:33:25;;;;;;;26.92;16.73;;;9.40;99.90;;;;;;5017242;28;20025;-78
2021/12/24 04:36:16;;;;;;;26.13;17.35;;;9.40;99.90;;;;;;5018413;28;20060;-79
2021/12/24 05:03:09;;;;;;;25.48;18.13;;;9.30;99.90;;;;;;5017472;28;20092;-78
2021/12/24 05:05:49;;;;;;;23.83;16.87;;;9.30;99.90;;;;;;5023938;28;20116;-78
2021/12/24 05:08:23;;;;;;;24.70;16.80;;;9.30;99.90;;;;;;5015378;28;20054;-78
2021/12/24 05:10:51;;;;;;;22.70;16.67;;;9.30;99.90;;;;;;5003128;28;20040;-78
2021/12/24 05:13:19;;;;;;;28.02;17.05;;;9.30;99.90;;;;;;5016858;28;20486;-79
2021/12/24 05:15:48;;;;;;;26.15;18.05;;;9.30;99.90;;;;;;5020698;28;20028;-78
2021/12/24 05:23:25;;;;;;;28.23;18.83;;;9.30;99.90;;;;;;5022129;28;20103;-79
2021/12/24 05:25:51;;;;;;;28.02;18.92;;;9.30;99.90;;;;;;5063351;28;20037;-79
2021/12/24 05:28:18;;;;;;;28.00;18.33;;;9.30;99.90;;;;;;5039404;28;20026;-78
2021/12/24 05:30:44;;;;;;;26.35;17.48;;;9.40;99.90;;;;;;5030780;28;20041;-79
2021/12/24 05:33:13;;;;;;;31.83;18.38;;;9.40;99.90;;;;;;5024208;28;20112;-78
2021/12/24 05:35:40;;;;;;;28.30;18.95;;;9.30;99.90;;;;;;5008410;28;20125;-78
2021/12/24 05:38:05;;;;;;;30.35;18.27;;;9.30;99.90;;;;;;5018221;28;20045;-78
2021/12/24 05:40:31;;;;;;;32.83;18.60;;;9.30;99.90;;;;;;5020621;28;20034;-78
2021/12/24 05:42:57;;;;;;;25.83;17.50;;;9.30;99.90;;;;;;5019700;28;20022;-79
2021/12/24 05:45:24;;;;;;;27.10;16.73;;;9.30;99.90;;;;;;5020254;28;20052;-79
2021/12/24 05:47:51;;;;;;;31.50;17.75;;;9.30;99.90;;;;;;5020531;28;20022;-79
2021/12/24 05:50:17;;;;;;;27.17;17.17;;;9.30;99.90;;;;;;5019044;28;20117;-78
2021/12/24 05:52:43;;;;;;;27.58;17.75;;;9.30;99.90;;;;;;5023359;28;20032;-79
2021/12/24 05:55:09;;;;;;;29.38;18.17;;;9.40;99.90;;;;;;5040550;28;20101;-78
2021/12/24 05:57:35;;;;;;;25.20;15.20;;;9.40;99.90;;;;;;5038254;28;20079;-79
2021/12/24 06:00:05;;;;;;;20.80;15.75;;;9.40;99.90;;;;;;5040062;28;20033;-78
2021/12/24 06:02:32;;;;;;;29.03;17.57;;;9.40;99.90;;;;;;5039748;28;20037;-78
2021/12/24 06:04:57;;;;;;;23.92;16.90;;;9.40;99.90;;;;;;5024600;28;20109;-78
2021/12/24 06:07:23;;;;;;;29.45;16.90;;;9.40;99.90;;;;;;5037907;28;20076;-79
2021/12/24 06:09:49;;;;;;;26.73;17.15;;;9.40;99.90;;;;;;5020084;28;20038;-78
2021/12/24 06:12:15;;;;;;;26.70;15.88;;;9.40;99.90;;;;;;5019506;28;20026;-79
2021/12/24 06:14:42;;;;;;;25.48;15.85;;;9.30;99.90;;;;;;5020466;28;20030;-78
2021/12/24 06:17:14;;;;;;;24.33;15.88;;;9.40;99.90;;;;;;5037452;28;20022;-78
2021/12/24 06:19:40;;;;;;;24.85;15.52;;;9.30;99.90;;;;;;5038618;28;20021;-78
2021/12/24 06:22:06;;;;;;;24.02;15.02;;;9.40;99.90;;;;;;5036988;28;20037;-78
2021/12/24 06:24:32;;;;;;;22.33;15.02;;;9.30;99.90;;;;;;5026660;28;20038;-78
2021/12/24 06:26:58;;;;;;;23.42;15.85;;;9.40;99.90;;;;;;5019429;28;20029;-78
2021/12/24 06:29:24;;;;;;;31.48;17.08;;;9.40;99.90;;;;;;5021552;28;20093;-78
2021/12/24 06:31:50;;;;;;;27.23;15.30;;;9.40;99.90;;;;;;5019108;28;20037;-78
2021/12/24 06:34:17;;;;;;;25.33;15.40;;;9.40;99.90;;;;;;5020050;28;20017;-78
2021/12/24 06:36:46;;;;;;;23.48;15.85;;;9.40;99.90;;;;;;5018379;28;20084;-79
2021/12/24 06:39:12;;;;;;;23.38;15.32;;;9.40;99.90;;;;;;5018216;28;20040;-78
2021/12/24 06:41:38;;;;;;;23.17;15.60;;;9.40;99.90;;;;;;5039544;28;20026;-78
2021/12/24 06:44:08;;;;;;;31.45;17.95;;;9.40;99.90;;;;;;5023416;28;20025;-79
2021/12/24 06:46:34;;;;;;;22.63;15.32;;;9.40;99.90;;;;;;5022251;28;20072;-78
2021/12/24 06:49:00;;;;;;;26.70;14.77;;;9.40;99.90;;;;;;5018895;28;20044;-78
2021/12/24 06:51:27;;;;;;;23.00;16.02;;;9.40;99.90;;;;;;5025362;28;20064;-78
2021/12/24 06:53:54;;;;;;;24.67;16.00;;;9.40;99.90;;;;;;5018803;28;20513;-78
2021/12/24 06:56:21;;;;;;;19.38;13.60;;;9.40;99.90;;;;;;5018622;28;20394;-78
2021/12/24 06:58:46;;;;;;;24.15;15.00;;;9.40;99.90;;;;;;5018280;28;20018;-78
2021/12/24 07:01:12;;;;;;;21.15;14.13;;;9.40;99.90;;;;;;5018661;28;20574;-78
2021/12/24 07:03:38;;;;;;;24.08;15.20;;;9.40;99.90;;;;;;5018657;28;20097;-78
2021/12/24 07:06:05;;;;;;;22.75;13.63;;;9.40;99.90;;;;;;5018209;28;20400;-80
2021/12/24 07:08:32;;;;;;;22.77;14.60;;;9.40;99.90;;;;;;5018259;28;20038;-78
2021/12/24 07:10:58;;;;;;;21.10;12.88;;;9.40;99.90;;;;;;5018482;28;20044;-79
2021/12/24 07:13:24;;;;;;;23.67;15.32;;;9.40;99.90;;;;;;5018137;28;20029;-78
2021/12/24 07:15:50;;;;;;;20.65;13.50;;;9.40;99.90;;;;;;5018240;28;20108;-79
2021/12/24 07:18:15;;;;;;;21.75;13.93;;;9.40;99.90;;;;;;5018372;28;20084;-79
2021/12/24 07:20:41;;;;;;;19.35;13.82;;;9.40;99.90;;;;;;5015362;28;20033;-78
2021/12/24 07:23:07;;;;;;;19.27;13.40;;;9.40;99.90;;;;;;5018353;28;20467;-78
2021/12/24 07:25:33;;;;;;;20.17;13.55;;;9.50;99.90;;;;;;5018040;28;20551;-78
2021/12/24 07:28:00;;;;;;;19.83;13.93;;;9.40;99.90;;;;;;5017904;28;20029;-78
2021/12/24 07:30:27;;;;;;;21.27;14.15;;;9.40;99.90;;;;;;5015643;28;20028;-78
2021/12/24 07:32:53;;;;;;;24.13;15.20;;;9.40;99.90;;;;;;5024143;28;20025;-76
2021/12/24 07:35:19;;;;;;;17.58;13.05;;;9.40;99.90;;;;;;5017965;28;20038;-76
2021/12/24 07:37:45;;;;;;;20.60;12.95;;;9.40;99.90;;;;;;5041062;28;20038;-76
2021/12/24 07:40:15;;;;;;;21.05;14.93;;;9.40;99.90;;;;;;5018057;28;20026;-76
2021/12/24 07:42:41;;;;;;;21.83;14.23;;;9.40;99.90;;;;;;5032452;28;20458;-76
2021/12/24 07:45:08;;;;;;;24.90;14.18;;;9.40;99.90;;;;;;5031545;28;20116;-76
2021/12/24 07:47:39;;;;;;;25.90;17.27;;;9.40;99.90;;;;;;5018234;28;20072;-75
2021/12/24 07:51:56;;;;;;;;;;;9.40;99.90;;;;;;5018482;28;20026;-76
2021/12/24 07:53:04;;;;;;;19.15;13.57;;;9.40;99.90;;;;;;5018267;28;19920;-75
2021/12/24 07:55:30;;;;;;;19.52;14.93;;;9.40;99.90;;;;;;5017433;28;20057;-76
2021/12/24 07:57:56;;;;;;;22.98;15.18;;;9.40;99.90;;;;;;5036615;28;20536;-76
2021/12/24 08:00:25;;;;;;;21.27;14.10;;;9.50;99.90;;;;;;5027550;28;20037;-75
2021/12/24 08:02:51;;;;;;;20.80;13.93;;;9.50;99.90;;;;;;5016163;28;20140;-76
2021/12/24 08:05:19;;;;;;;22.00;14.57;;;9.50;99.90;;;;;;5017334;28;20128;-75
2021/12/24 08:07:45;;;;;;;22.15;14.30;;;9.50;99.90;;;;;;5017864;28;20452;-76
2021/12/24 08:10:11;;;;;;;23.40;14.52;;;9.60;99.90;;;;;;5016696;28;20108;-76
2021/12/24 08:12:36;;;;;;;21.35;13.52;;;9.60;99.90;;;;;;5017004;28;20026;-76
2021/12/24 08:15:05;;;;;;;21.88;13.90;;;9.60;99.90;;;;;;5016992;28;20036;-76
2021/12/24 08:17:30;;;;;;;20.42;13.02;;;9.60;99.90;;;;;;5014946;28;20081;-76
2021/12/24 08:19:56;;;;;;;18.83;13.75;;;9.60;99.90;;;;;;5017297;28;20056;-75
2021/12/24 08:22:22;;;;;;;19.40;13.77;;;9.60;99.90;;;;;;5017430;28;20029;-76
2021/12/24 08:24:48;;;;;;;22.35;13.55;;;9.70;99.90;;;;;;5018829;28;20045;-76
2021/12/24 08:27:13;;;;;;;20.48;13.80;;;9.70;99.90;;;;;;5025310;28;20030;-77
2021/12/24 08:29:39;;;;;;;17.70;12.82;;;9.70;99.90;;;;;;5037295;28;20919;-76
2021/12/24 08:32:06;;;;;;;21.95;14.43;;;9.70;99.90;;;;;;5028183;28;20057;-75
2021/12/24 08:34:32;;;;;;;26.35;14.35;;;9.70;99.90;;;;;;5016781;28;20073;-76
2021/12/24 08:36:59;;;;;;;19.10;14.85;;;9.70;99.90;;;;;;5016793;28;20071;-76
2021/12/24 08:39:24;;;;;;;18.17;12.52;;;9.70;99.90;;;;;;5049196;28;20014;-76
2021/12/24 08:41:54;;;;;;;20.13;13.30;;;9.70;99.90;;;;;;5017284;28;20544;-76
2021/12/24 08:44:22;;;;;;;80.72;49.92;;;9.70;99.90;;;;;;5016327;28;20387;-76
2021/12/24 08:46:48;;;;;;;42.55;28.90;;;9.80;99.90;;;;;;5017019;28;20030;-76
2021/12/24 08:49:13;;;;;;;17.98;13.70;;;9.80;99.90;;;;;;5017329;28;20029;-76
2021/12/24 08:51:39;;;;;;;19.90;12.88;;;9.90;99.90;;;;;;5015792;28;20575;-76
2021/12/24 08:54:05;;;;;;;33.47;27.17;;;9.90;99.90;;;;;;5016514;28;20029;-76
2021/12/24 08:56:31;;;;;;;29.08;19.20;;;9.90;99.90;;;;;;5026132;28;20218;-76
2021/12/24 08:58:57;;;;;;;19.50;13.40;;;10.00;99.90;;;;;;5016850;28;20010;-77
2021/12/24 09:01:23;;;;;;;20.75;14.90;;;10.00;99.90;;;;;;5022402;28;20040;-76
2021/12/24 09:03:49;;;;;;;18.13;13.13;;;10.10;99.90;;;;;;5021258;28;20034;-76
2021/12/24 09:06:14;;;;;;;32.28;24.42;;;10.10;99.90;;;;;;5015581;28;20030;-77
2021/12/24 09:08:43;;;;;;;18.05;13.57;;;10.10;99.90;;;;;;5017107;28;20104;-77
2021/12/24 09:11:09;;;;;;;24.48;19.45;;;10.10;99.90;;;;;;5014710;28;20029;-77
2021/12/24 09:13:34;;;;;;;26.65;20.80;;;10.10;99.90;;;;;;5014941;28;20025;-76
2021/12/24 09:16:00;;;;;;;20.85;14.57;;;10.20;99.90;;;;;;5014757;28;20052;-76
2021/12/24 09:18:26;;;;;;;17.92;13.45;;;10.20;99.90;;;;;;5016518;28;20022;-76
2021/12/24 09:20:54;;;;;;;16.77;11.88;;;10.20;99.90;;;;;;5014938;28;20041;-76
2021/12/24 09:23:21;;;;;;;21.60;14.95;;;10.20;99.90;;;;;;5016386;28;20382;-76
2021/12/24 09:25:47;;;;;;;16.52;11.93;;;10.20;99.90;;;;;;5047980;28;20040;-75
2021/12/24 09:28:13;;;;;;;18.05;12.32;;;10.20;99.90;;;;;;5043011;28;20029;-74
2021/12/24 09:30:39;;;;;;;15.98;11.43;;;10.20;99.90;;;;;;5036609;28;20697;-75
2021/12/24 09:33:05;;;;;;;18.17;12.32;;;10.20;99.90;;;;;;5036641;28;20064;-74
2021/12/24 09:35:32;;;;;;;17.65;13.18;;;10.30;99.90;;;;;;5017837;28;20030;-75
2021/12/24 09:37:58;;;;;;;16.25;12.50;;;10.30;99.90;;;;;;5026659;28;20028;-75
2021/12/24 09:40:25;;;;;;;19.83;11.98;;;10.40;99.90;;;;;;5018965;28;20037;-76
2021/12/24 09:42:52;;;;;;;38.70;19.38;;;10.40;99.90;;;;;;5016075;28;20119;-76
2021/12/24 09:45:18;;;;;;;22.05;14.00;;;10.50;99.90;;;;;;5020396;28;20038;-76
2021/12/24 09:47:44;;;;;;;315.80;105.82;;;10.60;99.90;;;;;;5014938;28;20506;-75
2021/12/24 09:50:14;;;;;;;48.17;19.35;;;10.70;99.90;;;;;;5015873;28;20033;-74
2021/12/24 09:52:42;;;;;;;27.25;15.75;;;10.70;99.90;;;;;;5018935;28;20026;-74
2021/12/24 09:55:15;;;;;;;17.65;13.05;;;10.70;99.90;;;;;;5016798;28;20030;-74
2021/12/24 09:57:42;;;;;;;33.28;19.23;;;10.70;99.90;;;;;;5015625;28;20033;-75
2021/12/24 10:00:10;;;;;;;18.20;12.90;;;10.70;99.90;;;;;;5016108;28;20014;-74
2021/12/24 10:02:44;;;;;;;18.85;12.00;;;10.80;99.90;;;;;;5015507;28;20026;-74
2021/12/24 10:05:30;;;;;;;37.80;22.23;;;10.90;99.90;;;;;;5017474;28;20398;-74
2021/12/24 10:08:14;;;;;;;37.55;22.20;;;11.10;99.90;;;;;;5020267;28;20045;-74
2021/12/24 10:10:43;;;;;;;80.60;45.40;;;11.10;99.90;;;;;;5018621;28;20060;-74
2021/12/24 10:13:31;;;;;;;15.63;10.38;;;11.10;99.90;;;;;;5018821;28;20072;-74
2021/12/24 10:16:08;;;;;;;26.15;17.45;;;11.20;99.90;;;;;;5019658;28;20035;-75
2021/12/24 10:18:38;;;;;;;80.43;46.50;;;11.30;99.90;;;;;;5020184;28;20033;-75
2021/12/24 10:21:13;;;;;;;19.35;12.93;;;11.40;99.90;;;;;;5019825;28;20022;-75
2021/12/24 10:23:41;;;;;;;20.80;13.90;;;11.50;99.90;;;;;;5020389;28;20018;-75
2021/12/24 10:26:13;;;;;;;34.20;21.90;;;11.60;99.90;;;;;;5052339;28;20120;-75
2021/12/24 10:28:47;;;;;;;19.88;13.50;;;11.60;99.90;;;;;;5019110;28;20421;-75
2021/12/24 10:31:17;;;;;;;43.33;27.52;;;11.60;99.90;;;;;;5019125;28;20402;-75
2021/12/24 10:34:03;;;;;;;;;;;11.50;99.90;;;;;;5019243;28;20685;-76
2021/12/24 10:36:29;;;;;;;21.52;13.25;;;11.50;99.90;;;;;;5019367;28;19944;-76
2021/12/24 10:38:55;;;;;;;14.48;10.43;;;11.50;99.90;;;;;;5019949;28;20029;-75
2021/12/24 10:41:21;;;;;;;15.88;11.60;;;11.50;99.90;;;;;;5019752;28;20026;-76
2021/12/24 10:43:46;;;;;;;17.05;11.82;;;11.50;99.90;;;;;;5004677;28;20076;-77
2021/12/24 10:46:15;;;;;;;23.10;17.55;;;11.40;99.90;;;;;;5018280;28;20033;-77
2021/12/24 10:49:01;;;;;;;15.13;11.43;;;11.50;99.90;;;;;;5019018;28;20402;-77
2021/12/24 10:51:54;;;;;;;44.90;27.80;;;11.40;99.90;;;;;;5030275;28;20042;-76
2021/12/24 10:54:20;;;;;;;17.77;11.38;;;11.50;99.90;;;;;;5023701;28;20410;-76
2021/12/24 10:56:46;;;;;;;27.45;18.48;;;11.50;99.90;;;;;;5022296;28;20026;-78
2021/12/24 10:59:12;;;;;;;42.67;25.40;;;11.50;99.90;;;;;;5039162;28;20025;-77
2021/12/24 11:01:38;;;;;;;40.05;24.30;;;11.60;99.90;;;;;;5022479;28;20026;-78
2021/12/24 11:04:04;;;;;;;42.22;25.08;;;11.60;99.90;;;;;;5019005;28;20038;-77
2021/12/24 11:06:31;;;;;;;24.38;15.27;;;11.70;99.90;;;;;;5016471;28;20034;-78
2021/12/24 11:08:58;;;;;;;103.30;57.58;;;11.70;99.90;;;;;;5018044;28;20033;-77
2021/12/24 11:11:24;;;;;;;43.33;26.77;;;11.80;99.90;;;;;;5018835;28;20025;-77
2021/12/24 11:13:50;;;;;;;19.67;13.05;;;11.90;99.90;;;;;;5013586;28;20418;-77
2021/12/24 11:16:22;;;;;;;54.65;32.88;;;12.00;99.90;;;;;;5016488;28;20100;-75
2021/12/24 11:19:01;;;;;;;19.88;14.63;;;12.10;99.90;;;;;;5024184;28;20117;-76
2021/12/24 11:21:29;;;;;;;21.42;14.75;;;12.10;99.90;;;;;;5018926;28;20030;-75
2021/12/24 11:23:55;;;;;;;18.13;13.50;;;12.10;99.90;;;;;;5017468;28;20048;-76
2021/12/24 11:26:30;;;;;;;19.17;12.50;;;12.00;99.90;;;;;;5026122;28;20018;-77
2021/12/24 11:28:56;;;;;;;19.92;13.60;;;12.00;99.90;;;;;;5026313;28;20021;-76
2021/12/24 11:31:31;;;;;;;17.13;11.88;;;12.00;99.90;;;;;;5037426;28;20025;-77
2021/12/24 11:33:58;;;;;;;17.67;10.50;;;11.90;99.90;;;;;;5038508;28;20033;-76
2021/12/24 11:36:27;;;;;;;19.25;12.70;;;11.90;99.90;;;;;;5020676;28;20022;-76
2021/12/24 11:39:00;;;;;;;14.52;9.73;;;11.80;99.90;;;;;;5017530;28;20037;-76
2021/12/24 11:41:31;;;;;;;16.30;11.30;;;11.80;99.90;;;;;;5018944;28;20026;-76
2021/12/24 11:43:57;;;;;;;15.02;11.07;;;11.70;99.90;;;;;;5019436;28;20030;-75
2021/12/24 11:46:25;;;;;;;13.40;10.40;;;11.80;99.90;;;;;;5038232;28;20025;-76
2021/12/24 11:48:53;;;;;;;16.02;11.43;;;11.80;99.90;;;;;;5034046;28;20037;-76
2021/12/24 11:51:22;;;;;;;14.32;10.27;;;11.80;99.90;;;;;;5016427;28;20025;-75
2021/12/24 11:53:51;;;;;;;15.10;10.57;;;11.70;99.90;;;;;;5017568;28;20390;-75
2021/12/24 11:56:20;;;;;;;15.80;11.40;;;11.80;99.90;;;;;;5026994;28;20014;-75
2021/12/24 11:58:53;;;;;;;29.92;18.77;;;11.80;99.90;;;;;;5036964;28;20060;-76
2021/12/24 12:01:21;;;;;;;75.47;39.85;;;11.80;99.90;;;;;;5036046;28;20048;-75
2021/12/24 12:03:52;;;;;;;21.02;12.70;;;12.00;99.90;;;;;;5019321;28;20030;-75
2021/12/24 12:06:24;;;;;;;40.10;22.23;;;12.10;99.90;;;;;;5026592;28;20065;-75
2021/12/24 12:09:12;;;;;;;35.67;20.77;;;12.20;99.90;;;;;;5016351;28;20033;-77
2021/12/24 12:11:41;;;;;;;20.80;13.73;;;12.10;99.90;;;;;;5017707;28;20032;-78
2021/12/24 12:14:18;;;;;;;17.50;12.07;;;12.20;99.90;;;;;;5017696;28;20401;-75
2021/12/24 12:16:54;;;;;;;115.85;54.63;;;12.20;99.90;;;;;;5006359;28;20050;-76
2021/12/24 12:22:18;;;;;;;19.55;12.43;;;12.20;99.90;;;;;;5027299;28;20084;-76
2021/12/24 12:24:59;;;;;;;30.15;17.30;;;12.20;99.90;;;;;;5022497;28;20153;-74
2021/12/24 12:27:33;;;;;;;;;;;12.20;99.90;;;;;;5017251;28;20037;-73
2021/12/24 12:30:19;;;;;;;22.15;14.20;;;12.10;99.90;;;;;;5016685;28;19973;-74
2021/12/24 12:32:45;;;;;;;20.17;12.88;;;12.00;99.90;;;;;;5017171;28;20037;-73
2021/12/24 12:35:12;;;;;;;61.55;32.47;;;11.90;99.90;;;;;;5016938;28;20034;-73
2021/12/24 12:37:52;;;;;;;20.40;14.55;;;12.00;99.90;;;;;;5014390;28;20072;-74
2021/12/24 12:40:18;;;;;;;175.13;90.53;;;12.00;99.90;;;;;;5016680;28;20026;-73
2021/12/24 12:42:57;;;;;;;72.47;40.63;;;11.90;99.90;;;;;;5025580;28;20279;-74
2021/12/24 12:45:32;;;;;;;39.13;24.90;;;11.90;99.90;;;;;;5030337;28;20057;-74
2021/12/24 12:48:00;;;;;;;41.88;25.15;;;11.80;99.90;;;;;;5021679;28;20036;-73
2021/12/24 12:50:28;;;;;;;41.72;25.20;;;11.70;99.90;;;;;;5028877;28;20029;-73
2021/12/24 12:53:21;;;;;;;25.58;16.52;;;11.60;99.90;;;;;;5017212;28;20393;-74
2021/12/24 12:55:48;;;;;;;30.13;18.60;;;11.70;99.90;;;;;;5017181;28;20064;-73
2021/12/24 12:58:24;;;;;;;72.75;41.58;;;11.80;99.90;;;;;;5059902;28;20466;-72
2021/12/24 13:01:10;;;;;;;38.90;24.48;;;11.80;99.90;;;;;;5019102;28;20037;-73
2021/12/24 13:03:54;;;;;;;80.32;39.67;;;11.80;99.90;;;;;;5028534;28;20056;-72
2021/12/24 13:06:21;;;;;;;24.75;16.40;;;11.80;99.90;;;;;;5012167;28;20037;-73
2021/12/24 13:08:47;;;;;;;30.98;18.63;;;11.80;99.90;;;;;;5025207;28;20030;-73
2021/12/24 13:11:16;;;;;;;59.10;30.13;;;11.80;99.90;;;;;;5030349;28;20040;-72
2021/12/24 13:14:02;;;;;;;24.40;16.30;;;11.80;99.90;;;;;;5013058;28;20021;-73
2021/12/24 13:16:45;;;;;;;73.25;39.70;;;11.80;99.90;;;;;;5030796;28;20041;-72
2021/12/24 13:24:47;;;;;;;99.53;44.25;;;11.80;99.90;;;;;;5015208;28;20033;-72
2021/12/24 13:27:13;;;;;;;26.48;15.77;;;11.70;99.90;;;;;;5016169;28;20056;-73
2021/12/24 13:29:39;;;;;;;42.63;21.08;;;11.70;99.90;;;;;;5042053;28;20056;-73
2021/12/24 13:32:05;;;;;;;174.52;67.40;;;11.80;99.90;;;;;;5044543;28;20034;-72
2021/12/24 13:34:31;;;;;;;28.27;17.65;;;11.80;99.90;;;;;;5015909;28;20022;-73
2021/12/24 13:37:12;;;;;;;123.13;50.70;;;11.70;99.90;;;;;;5018133;28;20029;-73
2021/12/24 13:39:48;;;;;;;37.83;19.38;;;11.70;99.90;;;;;;5017329;28;20025;-72
2021/12/24 13:42:13;;;;;;;133.20;55.95;;;11.70;99.90;;;;;;5019978;28;20540;-73
2021/12/24 13:44:39;;;;;;;71.10;33.70;;;11.70;99.90;;;;;;5017702;28;20022;-73
2021/12/24 13:47:13;;;;;;;110.55;48.35;;;11.70;99.90;;;;;;5020070;28;20079;-74
2021/12/24 13:55:30;;;;;;;36.50;20.90;;;11.60;99.90;;;;;;5019980;28;20029;-73
2021/12/24 13:58:10;;;;;;;25.02;15.55;;;11.60;99.90;;;;;;5020986;28;20026;-73
2021/12/24 14:00:40;;;;;;;180.20;78.30;;;11.50;99.90;;;;;;5020231;28;20063;-73
2021/12/24 14:03:08;;;;;;;107.35;49.05;;;11.50;99.90;;;;;;5020016;28;20180;-73
2021/12/24 14:05:49;;;;;;;20.98;15.48;;;11.50;99.90;;;;;;5018721;28;20026;-73
2021/12/24 14:08:19;;;;;;;133.43;65.13;;;11.40;99.90;;;;;;5028934;28;20418;-73
2021/12/24 14:10:47;;;;;;;76.90;41.72;;;11.40;99.90;;;;;;5018983;28;20056;-73
2021/12/24 14:13:26;;;;;;;20.38;12.55;;;11.40;99.90;;;;;;5018237;28;20029;-73
2021/12/24 14:18:44;;;;;;;;;;;11.30;99.90;;;;;;5030046;28;20037;-73
2021/12/24 14:21:46;;;;;;;24.10;13.98;;;11.30;99.90;;;;;;5021086;28;19910;-73
2021/12/24 14:24:17;;;;;;;24.65;17.48;;;11.40;99.90;;;;;;5025634;28;20036;-73
2021/12/24 14:26:51;;;;;;;32.15;23.30;;;11.50;99.90;;;;;;5038700;28;20036;-74
2021/12/24 14:29:44;;;;;;;21.17;12.70;;;11.40;99.90;;;;;;5023872;28;20037;-76
2021/12/24 14:32:13;;;;;;;37.72;24.75;;;11.30;99.90;;;;;;5019436;28;20053;-74
2021/12/24 14:34:43;;;;;;;57.33;33.63;;;11.20;99.90;;;;;;5019743;28;20474;-74
2021/12/24 14:37:18;;;;;;;34.30;21.07;;;11.20;99.90;;;;;;5047159;28;20567;-74
2021/12/24 14:39:47;;;;;;;60.42;31.00;;;11.20;99.90;;;;;;5018950;28;20264;-72
2021/12/24 14:42:35;;;;;;;29.35;21.25;;;11.10;99.90;;;;;;5018812;28;20099;-74